sensor_id;sensor_type;location;lat;lon;timestamp;P1;durP1;ratioP1;P2;durP2;ratioP2
19814;SDS011;10067;53.092;8.800;2023-06-26T00:01:32;13.73;;;9.75;;
19814;SDS011;10067;53.092;8.800;2023-06-26T00:03:58;10.82;;;9.70;;
19814;SDS011;10067;53.092;8.800;2023-06-26T00:06:25;11.35;;;9.57;;
19814;SDS011;10067;53.092;8.800;2023-06-26T00:08:52;12.18;;;10.13;;
19814;SDS011;10067;53.092;8.800;2023-06-26T00:11:20;15.23;;;9.88;;
19814;SDS011;10067;53.092;8.800;2023-06-26T00:13:46;11.85;;;10.05;;
19814;SDS011;10067;53.092;8.800;2023-06-26T00:16:13;11.70;;;9.68;;
19814;SDS011;10067;53.092;8.800;2023-06-26T00:18:39;11.57;;;9.88;;
19814;SDS011;10067;53.092;8.800;2023-06-26T00:21:05;15.77;;;10.50;;
19814;SDS011;10067;53.092;8.800;2023-06-26T00:23:32;14.35;;;10.57;;
19814;SDS011;10067;53.092;8.800;2023-06-26T00:26:01;11.68;;;9.52;;
19814;SDS011;10067;53.092;8.800;2023-06-26T00:28:29;12.35;;;9.75;;
19814;SDS011;10067;53.092;8.800;2023-06-26T00:30:56;12.18;;;10.60;;
19814;SDS011;10067;53.092;8.800;2023-06-26T00:33:22;16.80;;;10.98;;
19814;SDS011;10067;53.092;8.800;2023-06-26T00:35:48;11.77;;;10.27;;
19814;SDS011;10067;53.092;8.800;2023-06-26T00:38:15;13.13;;;11.00;;
19814;SDS011;10067;53.092;8.800;2023-06-26T00:40:42;14.52;;;10.80;;
19814;SDS011;10067;53.092;8.800;2023-06-26T00:43:08;12.57;;;10.35;;
19814;SDS011;10067;53.092;8.800;2023-06-26T00:45:36;13.10;;;11.20;;
19814;SDS011;10067;53.092;8.800;2023-06-26T00:48:03;11.98;;;10.50;;
19814;SDS011;10067;53.092;8.800;2023-06-26T00:50:29;12.27;;;10.00;;
19814;SDS011;10067;53.092;8.800;2023-06-26T00:52:55;12.18;;;10.85;;
19814;SDS011;10067;53.092;8.800;2023-06-26T00:55:25;12.27;;;10.98;;
19814;SDS011;10067;53.092;8.800;2023-06-26T00:57:51;13.40;;;10.80;;
19814;SDS011;10067;53.092;8.800;2023-06-26T01:00:18;13.90;;;11.57;;
19814;SDS011;10067;53.092;8.800;2023-06-26T01:02:46;12.50;;;11.20;;
19814;SDS011;10067;53.092;8.800;2023-06-26T01:05:12;15.35;;;11.48;;
19814;SDS011;10067;53.092;8.800;2023-06-26T01:07:45;12.52;;;11.23;;
19814;SDS011;10067;53.092;8.800;2023-06-26T01:10:12;14.15;;;11.32;;
19814;SDS011;10067;53.092;8.800;2023-06-26T01:12:38;13.63;;;11.00;;
19814;SDS011;10067;53.092;8.800;2023-06-26T01:15:05;14.00;;;11.05;;
19814;SDS011;10067;53.092;8.800;2023-06-26T01:17:32;12.68;;;10.95;;
19814;SDS011;10067;53.092;8.800;2023-06-26T01:20:00;12.68;;;11.38;;
19814;SDS011;10067;53.092;8.800;2023-06-26T01:22:28;13.57;;;11.15;;
19814;SDS011;10067;53.092;8.800;2023-06-26T01:25:01;13.30;;;10.80;;
19814;SDS011;10067;53.092;8.800;2023-06-26T01:27:31;12.90;;;11.25;;
19814;SDS011;10067;53.092;8.800;2023-06-26T01:29:58;12.93;;;11.63;;
19814;SDS011;10067;53.092;8.800;2023-06-26T01:32:26;14.43;;;12.35;;
19814;SDS011;10067;53.092;8.800;2023-06-26T01:34:52;17.30;;;12.07;;
19814;SDS011;10067;53.092;8.800;2023-06-26T01:37:19;14.40;;;11.65;;
19814;SDS011;10067;53.092;8.800;2023-06-26T01:39:45;13.65;;;11.43;;
19814;SDS011;10067;53.092;8.800;2023-06-26T01:42:11;13.02;;;11.65;;
19814;SDS011;10067;53.092;8.800;2023-06-26T01:44:40;14.15;;;12.48;;
19814;SDS011;10067;53.092;8.800;2023-06-26T01:47:08;12.90;;;10.93;;
19814;SDS011;10067;53.092;8.800;2023-06-26T01:49:42;13.30;;;11.90;;
19814;SDS011;10067;53.092;8.800;2023-06-26T01:52:12;14.00;;;12.00;;
19814;SDS011;10067;53.092;8.800;2023-06-26T01:54:42;13.23;;;11.65;;
19814;SDS011;10067;53.092;8.800;2023-06-26T01:57:13;13.73;;;11.98;;
19814;SDS011;10067;53.092;8.800;2023-06-26T01:59:40;15.07;;;11.75;;
19814;SDS011;10067;53.092;8.800;2023-06-26T02:02:08;14.13;;;11.38;;
19814;SDS011;10067;53.092;8.800;2023-06-26T02:04:35;15.23;;;11.82;;
19814;SDS011;10067;53.092;8.800;2023-06-26T02:07:02;13.38;;;12.07;;
19814;SDS011;10067;53.092;8.800;2023-06-26T02:09:28;15.45;;;11.93;;
19814;SDS011;10067;53.092;8.800;2023-06-26T02:11:55;16.10;;;12.30;;
19814;SDS011;10067;53.092;8.800;2023-06-26T02:14:21;14.95;;;12.40;;
19814;SDS011;10067;53.092;8.800;2023-06-26T02:16:49;13.93;;;12.48;;
19814;SDS011;10067;53.092;8.800;2023-06-26T02:19:15;12.90;;;11.63;;
19814;SDS011;10067;53.092;8.800;2023-06-26T02:21:46;14.00;;;12.32;;
19814;SDS011;10067;53.092;8.800;2023-06-26T02:24:12;15.27;;;11.73;;
19814;SDS011;10067;53.092;8.800;2023-06-26T02:26:39;17.58;;;12.82;;
19814;SDS011;10067;53.092;8.800;2023-06-26T02:29:05;15.25;;;11.88;;
19814;SDS011;10067;53.092;8.800;2023-06-26T02:31:31;13.93;;;12.48;;
19814;SDS011;10067;53.092;8.800;2023-06-26T02:33:59;16.30;;;12.85;;
19814;SDS011;10067;53.092;8.800;2023-06-26T02:36:25;13.30;;;11.98;;
19814;SDS011;10067;53.092;8.800;2023-06-26T02:38:52;15.50;;;11.93;;
19814;SDS011;10067;53.092;8.800;2023-06-26T02:41:18;15.32;;;12.15;;
19814;SDS011;10067;53.092;8.800;2023-06-26T02:43:44;16.73;;;13.13;;
19814;SDS011;10067;53.092;8.800;2023-06-26T02:46:11;13.63;;;12.10;;
19814;SDS011;10067;53.092;8.800;2023-06-26T02:48:37;13.13;;;11.73;;
19814;SDS011;10067;53.092;8.800;2023-06-26T02:51:05;14.10;;;12.60;;
19814;SDS011;10067;53.092;8.800;2023-06-26T02:53:31;14.98;;;12.55;;
19814;SDS011;10067;53.092;8.800;2023-06-26T02:55:58;15.30;;;12.85;;
19814;SDS011;10067;53.092;8.800;2023-06-26T02:58:24;16.05;;;12.43;;
19814;SDS011;10067;53.092;8.800;2023-06-26T03:00:50;13.88;;;12.32;;
19814;SDS011;10067;53.092;8.800;2023-06-26T03:03:18;18.85;;;12.48;;
19814;SDS011;10067;53.092;8.800;2023-06-26T03:05:45;18.58;;;11.88;;
19814;SDS011;10067;53.092;8.800;2023-06-26T03:08:12;17.08;;;13.50;;
19814;SDS011;10067;53.092;8.800;2023-06-26T03:10:39;15.02;;;12.65;;
19814;SDS011;10067;53.092;8.800;2023-06-26T03:13:05;17.08;;;13.63;;
19814;SDS011;10067;53.092;8.800;2023-06-26T03:15:31;13.68;;;11.98;;
19814;SDS011;10067;53.092;8.800;2023-06-26T03:17:58;16.25;;;12.35;;
19814;SDS011;10067;53.092;8.800;2023-06-26T03:20:24;16.15;;;11.85;;
19814;SDS011;10067;53.092;8.800;2023-06-26T03:22:50;15.10;;;11.52;;
19814;SDS011;10067;53.092;8.800;2023-06-26T03:25:18;15.38;;;12.30;;
19814;SDS011;10067;53.092;8.800;2023-06-26T03:27:45;13.50;;;12.10;;
19814;SDS011;10067;53.092;8.800;2023-06-26T03:30:11;16.45;;;12.52;;
19814;SDS011;10067;53.092;8.800;2023-06-26T03:32:38;13.25;;;11.95;;
19814;SDS011;10067;53.092;8.800;2023-06-26T03:35:04;15.10;;;12.20;;
19814;SDS011;10067;53.092;8.800;2023-06-26T03:37:31;14.27;;;12.38;;
19814;SDS011;10067;53.092;8.800;2023-06-26T03:39:58;13.35;;;12.02;;
19814;SDS011;10067;53.092;8.800;2023-06-26T03:42:26;14.30;;;12.18;;
19814;SDS011;10067;53.092;8.800;2023-06-26T03:44:52;14.48;;;12.35;;
19814;SDS011;10067;53.092;8.800;2023-06-26T03:47:18;16.02;;;13.40;;
19814;SDS011;10067;53.092;8.800;2023-06-26T03:49:45;14.52;;;12.15;;
19814;SDS011;10067;53.092;8.800;2023-06-26T03:52:11;15.40;;;12.32;;
19814;SDS011;10067;53.092;8.800;2023-06-26T03:54:37;13.32;;;11.55;;
19814;SDS011;10067;53.092;8.800;2023-06-26T03:57:04;13.32;;;11.93;;
19814;SDS011;10067;53.092;8.800;2023-06-26T03:59:32;15.57;;;11.63;;
19814;SDS011;10067;53.092;8.800;2023-06-26T04:01:58;20.10;;;12.93;;
19814;SDS011;10067;53.092;8.800;2023-06-26T04:04:24;16.02;;;12.35;;
19814;SDS011;10067;53.092;8.800;2023-06-26T04:06:51;17.92;;;12.27;;
19814;SDS011;10067;53.092;8.800;2023-06-26T04:09:17;13.35;;;11.95;;
19814;SDS011;10067;53.092;8.800;2023-06-26T04:11:44;13.82;;;11.77;;
19814;SDS011;10067;53.092;8.800;2023-06-26T04:14:10;14.50;;;11.85;;
19814;SDS011;10067;53.092;8.800;2023-06-26T04:16:39;14.05;;;11.68;;
19814;SDS011;10067;53.092;8.800;2023-06-26T04:19:05;16.23;;;11.60;;
19814;SDS011;10067;53.092;8.800;2023-06-26T04:21:32;13.32;;;11.98;;
19814;SDS011;10067;53.092;8.800;2023-06-26T04:23:59;13.30;;;11.93;;
19814;SDS011;10067;53.092;8.800;2023-06-26T04:26:25;14.25;;;11.63;;
19814;SDS011;10067;53.092;8.800;2023-06-26T04:28:52;14.35;;;12.07;;
19814;SDS011;10067;53.092;8.800;2023-06-26T04:31:19;13.50;;;11.40;;
19814;SDS011;10067;53.092;8.800;2023-06-26T04:33:47;12.55;;;10.75;;
19814;SDS011;10067;53.092;8.800;2023-06-26T04:36:16;14.13;;;11.30;;
19814;SDS011;10067;53.092;8.800;2023-06-26T04:38:42;12.23;;;10.77;;
19814;SDS011;10067;53.092;8.800;2023-06-26T04:41:09;14.73;;;12.18;;
19814;SDS011;10067;53.092;8.800;2023-06-26T04:43:35;12.18;;;10.88;;
19814;SDS011;10067;53.092;8.800;2023-06-26T04:46:01;14.18;;;11.27;;
19814;SDS011;10067;53.092;8.800;2023-06-26T04:48:28;18.77;;;10.60;;
19814;SDS011;10067;53.092;8.800;2023-06-26T04:50:57;15.73;;;11.88;;
19814;SDS011;10067;53.092;8.800;2023-06-26T04:53:24;12.07;;;10.77;;
19814;SDS011;10067;53.092;8.800;2023-06-26T04:55:51;12.85;;;10.43;;
19814;SDS011;10067;53.092;8.800;2023-06-26T04:58:17;13.85;;;11.15;;
19814;SDS011;10067;53.092;8.800;2023-06-26T05:00:44;14.93;;;10.30;;
19814;SDS011;10067;53.092;8.800;2023-06-26T05:03:11;12.88;;;10.13;;
19814;SDS011;10067;53.092;8.800;2023-06-26T05:05:37;13.07;;;11.55;;
19814;SDS011;10067;53.092;8.800;2023-06-26T05:08:15;14.73;;;12.15;;
19814;SDS011;10067;53.092;8.800;2023-06-26T05:10:41;11.00;;;9.57;;
19814;SDS011;10067;53.092;8.800;2023-06-26T05:13:10;11.88;;;10.07;;
19814;SDS011;10067;53.092;8.800;2023-06-26T05:15:40;11.93;;;9.82;;
19814;SDS011;10067;53.092;8.800;2023-06-26T05:18:06;11.52;;;9.90;;
19814;SDS011;10067;53.092;8.800;2023-06-26T05:20:32;13.38;;;9.38;;
19814;SDS011;10067;53.092;8.800;2023-06-26T05:22:59;11.95;;;9.95;;
19814;SDS011;10067;53.092;8.800;2023-06-26T05:25:27;13.35;;;10.50;;
19814;SDS011;10067;53.092;8.800;2023-06-26T05:27:54;13.75;;;10.10;;
19814;SDS011;10067;53.092;8.800;2023-06-26T05:30:21;12.10;;;10.23;;
19814;SDS011;10067;53.092;8.800;2023-06-26T05:32:47;12.32;;;9.30;;
19814;SDS011;10067;53.092;8.800;2023-06-26T05:35:14;12.48;;;8.98;;
19814;SDS011;10067;53.092;8.800;2023-06-26T05:37:41;12.43;;;9.23;;
19814;SDS011;10067;53.092;8.800;2023-06-26T05:40:08;11.32;;;9.60;;
19814;SDS011;10067;53.092;8.800;2023-06-26T05:42:37;10.60;;;9.35;;
19814;SDS011;10067;53.092;8.800;2023-06-26T05:45:03;11.70;;;9.77;;
19814;SDS011;10067;53.092;8.800;2023-06-26T05:47:30;11.98;;;9.55;;
19814;SDS011;10067;53.092;8.800;2023-06-26T05:49:56;15.93;;;9.35;;
19814;SDS011;10067;53.092;8.800;2023-06-26T05:52:23;11.02;;;9.07;;
19814;SDS011;10067;53.092;8.800;2023-06-26T05:54:49;10.40;;;9.20;;
19814;SDS011;10067;53.092;8.800;2023-06-26T05:57:16;12.57;;;9.20;;
19814;SDS011;10067;53.092;8.800;2023-06-26T05:59:44;12.25;;;9.20;;
19814;SDS011;10067;53.092;8.800;2023-06-26T06:02:11;14.77;;;9.85;;
19814;SDS011;10067;53.092;8.800;2023-06-26T06:04:37;13.35;;;9.20;;
19814;SDS011;10067;53.092;8.800;2023-06-26T06:07:03;13.13;;;8.77;;
19814;SDS011;10067;53.092;8.800;2023-06-26T06:09:30;15.15;;;9.68;;
19814;SDS011;10067;53.092;8.800;2023-06-26T06:11:56;14.60;;;10.00;;
19814;SDS011;10067;53.092;8.800;2023-06-26T06:14:22;11.20;;;8.98;;
19814;SDS011;10067;53.092;8.800;2023-06-26T06:16:50;10.00;;;8.95;;
19814;SDS011;10067;53.092;8.800;2023-06-26T06:19:16;11.05;;;9.38;;
19814;SDS011;10067;53.092;8.800;2023-06-26T06:21:43;12.10;;;8.50;;
19814;SDS011;10067;53.092;8.800;2023-06-26T06:24:09;13.38;;;8.77;;
19814;SDS011;10067;53.092;8.800;2023-06-26T06:26:36;12.52;;;8.80;;
19814;SDS011;10067;53.092;8.800;2023-06-26T06:29:02;19.63;;;9.60;;
19814;SDS011;10067;53.092;8.800;2023-06-26T06:31:28;12.48;;;9.63;;
19814;SDS011;10067;53.092;8.800;2023-06-26T06:33:56;14.02;;;9.65;;
19814;SDS011;10067;53.092;8.800;2023-06-26T06:36:22;13.95;;;9.27;;
19814;SDS011;10067;53.092;8.800;2023-06-26T06:38:49;11.77;;;9.85;;
19814;SDS011;10067;53.092;8.800;2023-06-26T06:41:15;18.40;;;10.13;;
19814;SDS011;10067;53.092;8.800;2023-06-26T06:43:41;16.92;;;9.60;;
19814;SDS011;10067;53.092;8.800;2023-06-26T06:46:08;13.15;;;9.50;;
19814;SDS011;10067;53.092;8.800;2023-06-26T06:48:34;15.88;;;11.25;;
19814;SDS011;10067;53.092;8.800;2023-06-26T06:51:02;13.52;;;10.70;;
19814;SDS011;10067;53.092;8.800;2023-06-26T06:53:29;13.70;;;9.88;;
19814;SDS011;10067;53.092;8.800;2023-06-26T06:55:56;10.88;;;9.30;;
19814;SDS011;10067;53.092;8.800;2023-06-26T06:58:22;11.82;;;10.02;;
19814;SDS011;10067;53.092;8.800;2023-06-26T07:00:49;15.02;;;11.45;;
19814;SDS011;10067;53.092;8.800;2023-06-26T07:03:16;14.00;;;11.40;;
19814;SDS011;10067;53.092;8.800;2023-06-26T07:05:42;16.33;;;11.82;;
19814;SDS011;10067;53.092;8.800;2023-06-26T07:08:10;16.88;;;10.80;;
19814;SDS011;10067;53.092;8.800;2023-06-26T07:10:36;17.08;;;12.48;;
19814;SDS011;10067;53.092;8.800;2023-06-26T07:13:02;17.25;;;12.27;;
19814;SDS011;10067;53.092;8.800;2023-06-26T07:15:29;15.05;;;11.73;;
19814;SDS011;10067;53.092;8.800;2023-06-26T07:17:55;15.57;;;13.10;;
19814;SDS011;10067;53.092;8.800;2023-06-26T07:20:22;14.35;;;12.60;;
19814;SDS011;10067;53.092;8.800;2023-06-26T07:22:48;18.40;;;13.50;;
19814;SDS011;10067;53.092;8.800;2023-06-26T07:25:16;21.48;;;13.80;;
19814;SDS011;10067;53.092;8.800;2023-06-26T07:27:42;20.15;;;13.23;;
19814;SDS011;10067;53.092;8.800;2023-06-26T07:30:10;17.45;;;13.02;;
19814;SDS011;10067;53.092;8.800;2023-06-26T07:32:36;19.02;;;13.00;;
19814;SDS011;10067;53.092;8.800;2023-06-26T07:35:03;15.98;;;12.30;;
19814;SDS011;10067;53.092;8.800;2023-06-26T07:37:29;17.40;;;12.35;;
19814;SDS011;10067;53.092;8.800;2023-06-26T07:39:56;13.73;;;10.88;;
19814;SDS011;10067;53.092;8.800;2023-06-26T07:42:24;14.07;;;10.75;;
19814;SDS011;10067;53.092;8.800;2023-06-26T07:44:50;12.40;;;10.23;;
19814;SDS011;10067;53.092;8.800;2023-06-26T07:47:16;14.63;;;10.85;;
19814;SDS011;10067;53.092;8.800;2023-06-26T07:49:43;15.40;;;10.95;;
19814;SDS011;10067;53.092;8.800;2023-06-26T07:52:09;15.90;;;10.02;;
19814;SDS011;10067;53.092;8.800;2023-06-26T07:54:36;17.00;;;9.70;;
19814;SDS011;10067;53.092;8.800;2023-06-26T07:57:03;13.48;;;10.82;;
19814;SDS011;10067;53.092;8.800;2023-06-26T07:59:31;11.68;;;10.07;;
19814;SDS011;10067;53.092;8.800;2023-06-26T08:01:57;17.73;;;11.77;;
19814;SDS011;10067;53.092;8.800;2023-06-26T08:04:24;15.55;;;11.75;;
19814;SDS011;10067;53.092;8.800;2023-06-26T08:06:52;14.90;;;11.93;;
19814;SDS011;10067;53.092;8.800;2023-06-26T08:09:19;17.08;;;12.32;;
19814;SDS011;10067;53.092;8.800;2023-06-26T08:11:45;18.85;;;12.95;;
19814;SDS011;10067;53.092;8.800;2023-06-26T08:14:12;18.75;;;12.77;;
19814;SDS011;10067;53.092;8.800;2023-06-26T08:16:40;17.02;;;12.52;;
19814;SDS011;10067;53.092;8.800;2023-06-26T08:19:06;16.90;;;11.60;;
19814;SDS011;10067;53.092;8.800;2023-06-26T08:21:33;15.98;;;11.77;;
19814;SDS011;10067;53.092;8.800;2023-06-26T08:23:59;14.85;;;10.73;;
19814;SDS011;10067;53.092;8.800;2023-06-26T08:26:25;15.90;;;9.55;;
19814;SDS011;10067;53.092;8.800;2023-06-26T08:28:52;14.38;;;9.38;;
19814;SDS011;10067;53.092;8.800;2023-06-26T08:31:18;12.60;;;9.32;;
19814;SDS011;10067;53.092;8.800;2023-06-26T08:33:46;13.80;;;9.25;;
19814;SDS011;10067;53.092;8.800;2023-06-26T08:36:12;15.05;;;10.25;;
19814;SDS011;10067;53.092;8.800;2023-06-26T08:38:39;17.73;;;9.82;;
19814;SDS011;10067;53.092;8.800;2023-06-26T08:41:06;15.40;;;9.75;;
19814;SDS011;10067;53.092;8.800;2023-06-26T08:43:32;20.92;;;11.20;;
19814;SDS011;10067;53.092;8.800;2023-06-26T08:45:59;20.00;;;11.13;;
19814;SDS011;10067;53.092;8.800;2023-06-26T08:48:25;18.83;;;10.68;;
19814;SDS011;10067;53.092;8.800;2023-06-26T08:50:53;15.98;;;11.50;;
19814;SDS011;10067;53.092;8.800;2023-06-26T08:53:21;16.50;;;11.88;;
19814;SDS011;10067;53.092;8.800;2023-06-26T08:55:49;16.67;;;12.38;;
19814;SDS011;10067;53.092;8.800;2023-06-26T08:58:18;20.00;;;12.23;;
19814;SDS011;10067;53.092;8.800;2023-06-26T09:00:44;17.45;;;12.88;;
19814;SDS011;10067;53.092;8.800;2023-06-26T09:03:10;17.15;;;13.32;;
19814;SDS011;10067;53.092;8.800;2023-06-26T09:05:38;20.50;;;13.85;;
19814;SDS011;10067;53.092;8.800;2023-06-26T09:08:06;21.27;;;14.20;;
19814;SDS011;10067;53.092;8.800;2023-06-26T09:10:33;19.90;;;14.23;;
19814;SDS011;10067;53.092;8.800;2023-06-26T09:12:59;21.55;;;15.55;;
19814;SDS011;10067;53.092;8.800;2023-06-26T09:15:26;22.10;;;15.80;;
19814;SDS011;10067;53.092;8.800;2023-06-26T09:17:55;24.27;;;15.50;;
19814;SDS011;10067;53.092;8.800;2023-06-26T09:20:22;20.65;;;15.50;;
19814;SDS011;10067;53.092;8.800;2023-06-26T09:22:48;18.88;;;13.80;;
19814;SDS011;10067;53.092;8.800;2023-06-26T09:25:17;19.75;;;12.30;;
19814;SDS011;10067;53.092;8.800;2023-06-26T09:27:44;19.70;;;11.50;;
19814;SDS011;10067;53.092;8.800;2023-06-26T09:30:11;18.60;;;8.73;;
19814;SDS011;10067;53.092;8.800;2023-06-26T09:32:37;16.05;;;8.23;;
19814;SDS011;10067;53.092;8.800;2023-06-26T09:35:04;12.65;;;6.88;;
19814;SDS011;10067;53.092;8.800;2023-06-26T09:37:30;17.23;;;7.60;;
19814;SDS011;10067;53.092;8.800;2023-06-26T09:39:57;16.50;;;7.13;;
19814;SDS011;10067;53.092;8.800;2023-06-26T09:42:25;10.93;;;6.53;;
19814;SDS011;10067;53.092;8.800;2023-06-26T09:44:52;15.63;;;6.90;;
19814;SDS011;10067;53.092;8.800;2023-06-26T09:47:19;12.40;;;6.22;;
19814;SDS011;10067;53.092;8.800;2023-06-26T09:49:46;13.50;;;6.07;;
19814;SDS011;10067;53.092;8.800;2023-06-26T09:52:13;13.07;;;5.85;;
19814;SDS011;10067;53.092;8.800;2023-06-26T09:54:41;10.32;;;5.03;;
19814;SDS011;10067;53.092;8.800;2023-06-26T09:57:09;13.15;;;4.88;;
19814;SDS011;10067;53.092;8.800;2023-06-26T09:59:36;11.70;;;4.50;;
19814;SDS011;10067;53.092;8.800;2023-06-26T10:02:03;11.48;;;5.80;;
19814;SDS011;10067;53.092;8.800;2023-06-26T10:04:30;18.83;;;10.68;;
19814;SDS011;10067;53.092;8.800;2023-06-26T10:06:56;9.88;;;4.47;;
19814;SDS011;10067;53.092;8.800;2023-06-26T10:09:24;16.98;;;10.40;;
19814;SDS011;10067;53.092;8.800;2023-06-26T10:11:51;10.65;;;3.70;;
19814;SDS011;10067;53.092;8.800;2023-06-26T10:14:20;9.38;;;3.45;;
19814;SDS011;10067;53.092;8.800;2023-06-26T10:16:48;9.55;;;3.70;;
19814;SDS011;10067;53.092;8.800;2023-06-26T10:19:16;10.18;;;3.53;;
19814;SDS011;10067;53.092;8.800;2023-06-26T10:21:44;9.05;;;3.83;;
19814;SDS011;10067;53.092;8.800;2023-06-26T10:24:11;12.10;;;3.40;;
19814;SDS011;10067;53.092;8.800;2023-06-26T10:26:44;8.25;;;3.22;;
19814;SDS011;10067;53.092;8.800;2023-06-26T10:29:10;6.45;;;3.08;;
19814;SDS011;10067;53.092;8.800;2023-06-26T10:31:37;11.70;;;5.88;;
19814;SDS011;10067;53.092;8.800;2023-06-26T10:34:07;10.55;;;3.78;;
19814;SDS011;10067;53.092;8.800;2023-06-26T10:36:33;8.93;;;3.03;;
19814;SDS011;10067;53.092;8.800;2023-06-26T10:39:03;6.57;;;2.63;;
19814;SDS011;10067;53.092;8.800;2023-06-26T10:41:35;9.35;;;2.50;;
19814;SDS011;10067;53.092;8.800;2023-06-26T10:44:06;6.60;;;2.92;;
19814;SDS011;10067;53.092;8.800;2023-06-26T10:46:45;9.02;;;2.83;;
19814;SDS011;10067;53.092;8.800;2023-06-26T10:49:15;7.28;;;2.60;;
19814;SDS011;10067;53.092;8.800;2023-06-26T10:51:45;6.85;;;2.70;;
19814;SDS011;10067;53.092;8.800;2023-06-26T10:54:13;7.20;;;2.90;;
19814;SDS011;10067;53.092;8.800;2023-06-26T10:56:43;9.00;;;3.15;;
19814;SDS011;10067;53.092;8.800;2023-06-26T10:59:16;12.85;;;2.60;;
19814;SDS011;10067;53.092;8.800;2023-06-26T11:01:43;8.65;;;2.90;;
19814;SDS011;10067;53.092;8.800;2023-06-26T11:04:11;6.13;;;2.45;;
19814;SDS011;10067;53.092;8.800;2023-06-26T11:06:40;5.05;;;2.10;;
19814;SDS011;10067;53.092;8.800;2023-06-26T11:09:09;7.57;;;1.75;;
19814;SDS011;10067;53.092;8.800;2023-06-26T11:11:55;5.30;;;1.95;;
19814;SDS011;10067;53.092;8.800;2023-06-26T11:14:24;6.82;;;2.90;;
19814;SDS011;10067;53.092;8.800;2023-06-26T11:16:51;6.65;;;2.88;;
19814;SDS011;10067;53.092;8.800;2023-06-26T11:19:18;8.05;;;2.30;;
19814;SDS011;10067;53.092;8.800;2023-06-26T11:21:46;8.90;;;1.90;;
19814;SDS011;10067;53.092;8.800;2023-06-26T11:24:12;5.53;;;1.73;;
19814;SDS011;10067;53.092;8.800;2023-06-26T11:26:39;7.00;;;2.38;;
19814;SDS011;10067;53.092;8.800;2023-06-26T11:29:06;8.38;;;1.90;;
19814;SDS011;10067;53.092;8.800;2023-06-26T11:31:33;6.43;;;1.90;;
19814;SDS011;10067;53.092;8.800;2023-06-26T11:34:00;9.25;;;2.00;;
19814;SDS011;10067;53.092;8.800;2023-06-26T11:36:28;7.15;;;2.10;;
19814;SDS011;10067;53.092;8.800;2023-06-26T11:38:55;10.88;;;2.25;;
19814;SDS011;10067;53.092;8.800;2023-06-26T11:41:22;6.50;;;2.42;;
19814;SDS011;10067;53.092;8.800;2023-06-26T11:43:49;4.57;;;2.00;;
19814;SDS011;10067;53.092;8.800;2023-06-26T11:46:16;4.90;;;2.10;;
19814;SDS011;10067;53.092;8.800;2023-06-26T11:48:42;3.58;;;1.88;;
19814;SDS011;10067;53.092;8.800;2023-06-26T11:51:08;4.85;;;2.05;;
19814;SDS011;10067;53.092;8.800;2023-06-26T11:53:38;8.68;;;2.20;;
19814;SDS011;10067;53.092;8.800;2023-06-26T11:56:08;9.77;;;2.70;;
19814;SDS011;10067;53.092;8.800;2023-06-26T11:58:35;5.15;;;2.38;;
19814;SDS011;10067;53.092;8.800;2023-06-26T12:01:01;10.93;;;2.63;;
19814;SDS011;10067;53.092;8.800;2023-06-26T12:03:28;9.95;;;3.20;;
19814;SDS011;10067;53.092;8.800;2023-06-26T12:05:55;7.30;;;3.05;;
19814;SDS011;10067;53.092;8.800;2023-06-26T12:08:21;7.32;;;2.05;;
19814;SDS011;10067;53.092;8.800;2023-06-26T12:10:48;4.30;;;2.03;;
19814;SDS011;10067;53.092;8.800;2023-06-26T12:13:16;5.63;;;2.20;;
19814;SDS011;10067;53.092;8.800;2023-06-26T12:15:42;8.30;;;2.35;;
19814;SDS011;10067;53.092;8.800;2023-06-26T12:18:08;11.40;;;2.55;;
19814;SDS011;10067;53.092;8.800;2023-06-26T12:20:39;9.45;;;2.60;;
19814;SDS011;10067;53.092;8.800;2023-06-26T12:23:11;4.35;;;2.03;;
19814;SDS011;10067;53.092;8.800;2023-06-26T12:25:37;7.45;;;3.45;;
19814;SDS011;10067;53.092;8.800;2023-06-26T12:28:03;9.60;;;2.17;;
19814;SDS011;10067;53.092;8.800;2023-06-26T12:30:44;7.82;;;2.17;;
19814;SDS011;10067;53.092;8.800;2023-06-26T12:33:12;7.00;;;2.10;;
19814;SDS011;10067;53.092;8.800;2023-06-26T12:35:38;4.43;;;1.98;;
19814;SDS011;10067;53.092;8.800;2023-06-26T12:38:06;6.18;;;2.10;;
19814;SDS011;10067;53.092;8.800;2023-06-26T12:40:34;7.63;;;2.50;;
19814;SDS011;10067;53.092;8.800;2023-06-26T12:43:01;6.70;;;2.50;;
19814;SDS011;10067;53.092;8.800;2023-06-26T12:45:28;6.15;;;1.88;;
19814;SDS011;10067;53.092;8.800;2023-06-26T12:48:11;5.97;;;2.08;;
19814;SDS011;10067;53.092;8.800;2023-06-26T12:50:42;6.40;;;2.20;;
19814;SDS011;10067;53.092;8.800;2023-06-26T12:53:09;5.05;;;2.10;;
19814;SDS011;10067;53.092;8.800;2023-06-26T12:55:35;6.15;;;2.25;;
19814;SDS011;10067;53.092;8.800;2023-06-26T12:58:02;8.48;;;2.60;;
19814;SDS011;10067;53.092;8.800;2023-06-26T13:00:28;6.18;;;2.30;;
19814;SDS011;10067;53.092;8.800;2023-06-26T13:02:55;7.05;;;2.20;;
19814;SDS011;10067;53.092;8.800;2023-06-26T13:05:25;5.53;;;2.45;;
19814;SDS011;10067;53.092;8.800;2023-06-26T13:07:51;3.90;;;1.88;;
19814;SDS011;10067;53.092;8.800;2023-06-26T13:10:18;3.55;;;1.98;;
19814;SDS011;10067;53.092;8.800;2023-06-26T13:12:45;5.43;;;2.65;;
19814;SDS011;10067;53.092;8.800;2023-06-26T13:15:11;7.40;;;2.55;;
19814;SDS011;10067;53.092;8.800;2023-06-26T13:17:37;8.45;;;2.15;;
19814;SDS011;10067;53.092;8.800;2023-06-26T13:20:04;3.67;;;1.85;;
19814;SDS011;10067;53.092;8.800;2023-06-26T13:22:34;7.72;;;2.13;;
19814;SDS011;10067;53.092;8.800;2023-06-26T13:25:01;8.27;;;3.22;;
19814;SDS011;10067;53.092;8.800;2023-06-26T13:27:27;5.00;;;2.60;;
19814;SDS011;10067;53.092;8.800;2023-06-26T13:29:53;10.93;;;2.88;;
19814;SDS011;10067;53.092;8.800;2023-06-26T13:32:20;7.50;;;2.72;;
19814;SDS011;10067;53.092;8.800;2023-06-26T13:34:46;5.07;;;2.22;;
19814;SDS011;10067;53.092;8.800;2023-06-26T13:37:13;6.28;;;2.45;;
19814;SDS011;10067;53.092;8.800;2023-06-26T13:39:41;7.88;;;2.42;;
19814;SDS011;10067;53.092;8.800;2023-06-26T13:42:14;7.38;;;2.45;;
19814;SDS011;10067;53.092;8.800;2023-06-26T13:44:40;7.65;;;2.88;;
19814;SDS011;10067;53.092;8.800;2023-06-26T13:47:07;10.23;;;3.90;;
19814;SDS011;10067;53.092;8.800;2023-06-26T13:49:33;7.63;;;3.22;;
19814;SDS011;10067;53.092;8.800;2023-06-26T13:52:00;7.50;;;3.05;;
19814;SDS011;10067;53.092;8.800;2023-06-26T13:54:26;8.38;;;2.70;;
19814;SDS011;10067;53.092;8.800;2023-06-26T13:56:54;6.60;;;2.25;;
19814;SDS011;10067;53.092;8.800;2023-06-26T13:59:22;8.85;;;2.38;;
19814;SDS011;10067;53.092;8.800;2023-06-26T14:01:50;8.15;;;2.88;;
19814;SDS011;10067;53.092;8.800;2023-06-26T14:04:17;11.77;;;3.03;;
19814;SDS011;10067;53.092;8.800;2023-06-26T14:06:43;5.78;;;2.65;;
19814;SDS011;10067;53.092;8.800;2023-06-26T14:09:10;6.20;;;2.05;;
19814;SDS011;10067;53.092;8.800;2023-06-26T14:11:36;4.35;;;2.40;;
19814;SDS011;10067;53.092;8.800;2023-06-26T14:14:04;8.40;;;2.28;;
19814;SDS011;10067;53.092;8.800;2023-06-26T14:16:31;5.90;;;2.25;;
19814;SDS011;10067;53.092;8.800;2023-06-26T14:18:57;5.63;;;2.35;;
19814;SDS011;10067;53.092;8.800;2023-06-26T14:21:23;8.32;;;2.65;;
19814;SDS011;10067;53.092;8.800;2023-06-26T14:23:50;8.30;;;2.80;;
19814;SDS011;10067;53.092;8.800;2023-06-26T14:26:16;4.55;;;2.30;;
19814;SDS011;10067;53.092;8.800;2023-06-26T14:28:43;5.90;;;2.70;;
19814;SDS011;10067;53.092;8.800;2023-06-26T14:31:11;10.93;;;3.45;;